createdAt,value
2022-11-12T00:00:15.456Z,5.00
2022-11-12T00:01:19.363Z,4.50
2022-11-12T00:02:23.286Z,3.75
2022-11-12T00:03:27.356Z,4.00
2022-11-12T00:04:31.152Z,3.50
2022-11-12T00:05:34.848Z,4.00
2022-11-12T00:06:38.666Z,4.50
2022-11-12T00:07:42.543Z,3.50
2022-11-12T00:08:46.248Z,2.25
2022-11-12T00:09:50.274Z,3.50
2022-11-12T00:10:54.043Z,4.25
2022-11-12T00:11:59.060Z,4.00
2022-11-12T00:13:02.862Z,3.50
2022-11-12T00:14:06.866Z,4.00
2022-11-12T00:15:10.763Z,4.00
2022-11-12T00:16:14.451Z,4.75
2022-11-12T00:17:19.272Z,5.50
2022-11-12T00:18:24.054Z,5.00
2022-11-12T00:19:28.503Z,5.00
2022-11-12T00:20:32.523Z,5.50
2022-11-12T00:21:36.810Z,4.00
2022-11-12T00:22:41.019Z,5.00
2022-11-12T00:23:44.891Z,5.50
2022-11-12T00:24:49.029Z,5.25
2022-11-12T00:25:52.928Z,5.50
2022-11-12T00:26:57.225Z,5.00
2022-11-12T00:28:01.533Z,4.50
2022-11-12T00:29:05.349Z,4.00
2022-11-12T00:30:09.042Z,4.50
2022-11-12T00:31:12.852Z,5.50
2022-11-12T00:32:16.941Z,5.00
2022-11-12T00:33:20.821Z,5.25
2022-11-12T00:34:24.733Z,5.50
2022-11-12T00:35:28.725Z,5.00
2022-11-12T00:36:32.505Z,4.50
2022-11-12T00:37:36.513Z,5.50
2022-11-12T00:38:40.425Z,4.50
2022-11-12T00:39:44.225Z,4.50
2022-11-12T00:40:48.524Z,6.00
2022-11-12T00:41:52.627Z,6.00
2022-11-12T00:42:56.940Z,4.75
2022-11-12T00:44:00.632Z,5.00
2022-11-12T00:45:04.435Z,4.00
2022-11-12T00:46:08.427Z,4.00
2022-11-12T00:47:12.115Z,4.50
2022-11-12T00:48:15.932Z,5.00
2022-11-12T00:49:20.244Z,5.00
2022-11-12T00:50:23.930Z,7.00
2022-11-12T00:51:27.783Z,6.00
2022-11-12T00:52:31.727Z,5.00
2022-11-12T00:53:35.737Z,4.50
2022-11-12T00:54:39.630Z,5.00
2022-11-12T00:55:43.316Z,4.00
2022-11-12T00:56:47.216Z,5.00
2022-11-12T00:57:51.003Z,5.00
2022-11-12T00:58:54.797Z,7.00
2022-11-12T00:59:58.606Z,6.50
2022-11-12T01:01:02.601Z,5.75
2022-11-12T01:02:06.496Z,6.00
2022-11-12T01:03:10.289Z,6.50
2022-11-12T01:04:14.156Z,5.75
2022-11-12T01:05:17.989Z,5.25
2022-11-12T01:06:21.991Z,5.50
2022-11-12T01:07:25.894Z,5.50
2022-11-12T01:08:29.789Z,5.75
2022-11-12T01:09:33.786Z,7.00
2022-11-12T01:10:37.581Z,6.50
2022-11-12T01:11:41.388Z,6.50
2022-11-12T01:12:45.173Z,6.25
2022-11-12T01:13:49.071Z,6.75
2022-11-12T01:14:53.099Z,5.75
2022-11-12T01:15:57.191Z,7.00
2022-11-12T01:17:01.036Z,7.75
2022-11-12T01:18:04.871Z,8.50
2022-11-12T01:19:08.569Z,8.00
2022-11-12T01:20:12.257Z,7.25
2022-11-12T01:21:16.572Z,6.50
2022-11-12T01:22:20.578Z,7.50
2022-11-12T01:23:24.569Z,6.50
2022-11-12T01:24:28.348Z,6.00
2022-11-12T01:25:32.372Z,6.00
2022-11-12T01:26:36.674Z,6.00
2022-11-12T01:27:40.581Z,5.00
2022-11-12T01:28:44.486Z,6.50
2022-11-12T01:29:48.380Z,6.00
2022-11-12T01:30:52.172Z,6.00
2022-11-12T01:31:56.155Z,5.50
2022-11-12T01:32:59.971Z,5.00
2022-11-12T01:34:03.661Z,7.00
2022-11-12T01:35:07.666Z,6.50
2022-11-12T01:36:11.458Z,6.00
2022-11-12T01:37:15.359Z,5.50
2022-11-12T01:38:19.151Z,6.25
2022-11-12T01:39:23.159Z,6.50
2022-11-12T01:40:27.150Z,5.00
2022-11-12T01:41:30.936Z,5.00
2022-11-12T01:42:34.766Z,4.75
2022-11-12T01:43:38.758Z,5.00
2022-11-12T01:44:42.603Z,6.00
2022-11-12T01:45:46.551Z,6.00
2022-11-12T01:46:50.550Z,7.00
2022-11-12T01:47:54.649Z,5.50
2022-11-12T01:48:58.624Z,5.00
2022-11-12T01:50:02.458Z,5.75
2022-11-12T01:51:06.452Z,5.50
2022-11-12T01:52:10.165Z,4.75
2022-11-12T01:53:13.913Z,5.50
2022-11-12T01:54:17.652Z,6.50
2022-11-12T01:55:21.529Z,5.50
2022-11-12T01:56:25.536Z,5.75
2022-11-12T01:57:34.399Z,6.00
2022-11-12T01:58:34.252Z,4.00
2022-11-12T01:59:38.047Z,3.00
2022-11-12T02:00:42.059Z,4.50
2022-11-12T02:01:45.957Z,4.50
2022-11-12T02:02:49.762Z,4.50
2022-11-12T02:03:53.551Z,4.50
2022-11-12T02:04:57.310Z,5.50
2022-11-12T02:06:00.990Z,5.25
2022-11-12T02:07:04.573Z,6.00
2022-11-12T02:08:08.220Z,6.75
2022-11-12T02:09:11.912Z,4.50
2022-11-12T02:10:15.707Z,4.50
2022-11-12T02:11:19.399Z,5.75
2022-11-12T02:12:23.530Z,6.50
2022-11-12T02:13:27.334Z,5.75
2022-11-12T02:14:30.990Z,6.75
2022-11-12T02:15:34.790Z,8.00
2022-11-12T02:16:38.585Z,6.75
2022-11-12T02:17:42.590Z,6.00
2022-11-12T02:18:46.539Z,5.50
2022-11-12T02:19:50.325Z,6.00
2022-11-12T02:20:54.383Z,6.25
2022-11-12T02:21:58.182Z,7.00
2022-11-12T02:23:01.876Z,6.00
2022-11-12T02:24:05.768Z,6.00
2022-11-12T02:25:09.467Z,6.00
2022-11-12T02:26:13.269Z,6.25
2022-11-12T02:27:17.260Z,7.50
2022-11-12T02:28:21.064Z,8.25
2022-11-12T02:29:24.961Z,6.00
2022-11-12T02:30:28.853Z,5.75
2022-11-12T02:31:32.759Z,6.00
2022-11-12T02:32:36.657Z,6.00
2022-11-12T02:33:40.445Z,7.00
2022-11-12T02:34:44.147Z,6.00
2022-11-12T02:35:47.795Z,6.00
2022-11-12T02:36:51.429Z,6.50
2022-11-12T02:37:55.333Z,6.00
2022-11-12T02:38:59.135Z,5.50
2022-11-12T02:40:02.923Z,5.00
2022-11-12T02:41:06.822Z,4.75
2022-11-12T02:42:10.616Z,4.75
2022-11-12T02:43:14.508Z,5.25
2022-11-12T02:44:18.307Z,6.50
2022-11-12T02:45:22.515Z,6.25
2022-11-12T02:46:26.210Z,6.00
2022-11-12T02:47:30.017Z,5.75
2022-11-12T02:48:33.915Z,6.00
2022-11-12T02:49:37.903Z,6.00
2022-11-12T02:50:41.602Z,5.50
2022-11-12T02:51:45.291Z,6.00
2022-11-12T02:52:49.096Z,7.00
2022-11-12T02:53:52.989Z,6.00
2022-11-12T02:54:56.889Z,5.50
2022-11-12T02:56:00.574Z,5.50
2022-11-12T02:57:04.480Z,6.25
2022-11-12T02:58:08.379Z,6.50
2022-11-12T02:59:12.382Z,5.00
2022-11-12T03:00:16.295Z,4.75
2022-11-12T03:01:20.006Z,5.50
2022-11-12T03:02:23.763Z,7.00
2022-11-12T03:03:27.568Z,6.50
2022-11-12T03:04:31.459Z,8.50
2022-11-12T03:05:35.153Z,8.00
2022-11-12T03:06:39.075Z,8.00
2022-11-12T03:07:42.864Z,9.00
2022-11-12T03:08:46.745Z,6.50
2022-11-12T03:09:50.551Z,6.00
2022-11-12T03:10:54.453Z,5.50
2022-11-12T03:11:58.379Z,6.50
2022-11-12T03:13:02.034Z,7.00
2022-11-12T03:14:05.760Z,6.50
2022-11-12T03:15:10.170Z,6.50
2022-11-12T03:16:13.956Z,7.00
2022-11-12T03:17:18.257Z,7.00
2022-11-12T03:18:22.146Z,7.00
2022-11-12T03:19:26.146Z,8.50
2022-11-12T03:20:30.059Z,9.00
2022-11-12T03:21:34.451Z,8.25
2022-11-12T03:22:38.473Z,7.50
2022-11-12T03:23:42.556Z,6.75
2022-11-12T03:24:46.579Z,7.25
2022-11-12T03:25:50.566Z,8.50
2022-11-12T03:26:55.683Z,8.75
2022-11-12T03:27:59.804Z,9.00
2022-11-12T03:29:03.902Z,8.25
2022-11-12T03:30:07.563Z,7.00
2022-11-12T03:31:11.674Z,8.00
2022-11-12T03:32:15.290Z,8.50
2022-11-12T03:33:19.293Z,7.50
2022-11-12T03:34:22.981Z,6.75
2022-11-12T03:35:27.286Z,8.00
2022-11-12T03:36:31.503Z,8.50
2022-11-12T03:37:35.205Z,8.00
2022-11-12T03:38:38.901Z,9.50
2022-11-12T03:39:42.857Z,9.00
2022-11-12T03:40:47.490Z,8.00
2022-11-12T03:41:51.395Z,8.50
2022-11-12T03:42:55.617Z,7.50
2022-11-12T03:43:59.269Z,9.00
2022-11-12T03:45:03.101Z,10.25
2022-11-12T03:46:06.787Z,9.25
2022-11-12T03:47:10.501Z,9.50
2022-11-12T03:48:15.698Z,9.00
2022-11-12T03:49:19.312Z,8.50
2022-11-12T03:50:23.209Z,7.50
2022-11-12T03:51:27.094Z,7.00
2022-11-12T03:52:31.207Z,6.50
2022-11-12T03:53:35.107Z,7.75
2022-11-12T03:54:39.008Z,8.00
2022-11-12T03:55:42.897Z,5.50
2022-11-12T03:56:46.896Z,5.50
2022-11-12T03:57:50.809Z,6.25
2022-11-12T03:58:54.707Z,7.00
2022-11-12T03:59:58.514Z,7.00
2022-11-12T04:01:02.540Z,6.00
2022-11-12T04:02:06.410Z,6.50
2022-11-12T04:03:10.263Z,8.50
2022-11-12T04:04:14.387Z,8.75
2022-11-12T04:05:18.090Z,7.75
2022-11-12T04:06:21.989Z,7.00
2022-11-12T04:07:25.706Z,8.75
2022-11-12T04:08:29.659Z,7.25
2022-11-12T04:09:33.500Z,7.00
2022-11-12T04:10:37.381Z,8.00
2022-11-12T04:11:41.173Z,7.75
2022-11-12T04:12:44.965Z,7.00
2022-11-12T04:13:48.783Z,6.50
2022-11-12T04:14:52.496Z,7.00
2022-11-12T04:15:56.259Z,6.00
2022-11-12T04:17:00.166Z,7.00
2022-11-12T04:18:05.118Z,8.00
2022-11-12T04:19:08.777Z,8.00
2022-11-12T04:20:12.582Z,6.50
2022-11-12T04:21:16.882Z,7.75
2022-11-12T04:22:21.189Z,9.00
2022-11-12T04:23:24.986Z,9.00
2022-11-12T04:24:28.810Z,10.25
2022-11-12T04:25:33.182Z,10.00
2022-11-12T04:26:37.306Z,8.50
2022-11-12T04:27:41.092Z,7.25
2022-11-12T04:28:44.899Z,7.75
2022-11-12T04:29:48.892Z,9.00
2022-11-12T04:30:52.989Z,9.00
2022-11-12T04:31:56.684Z,8.50
2022-11-12T04:33:00.361Z,9.50
2022-11-12T04:34:04.043Z,10.00
2022-11-12T04:35:07.975Z,8.50
2022-11-12T04:36:12.170Z,7.50
2022-11-12T04:37:18.713Z,7.00
2022-11-12T04:38:21.910Z,9.00
2022-11-12T04:39:26.219Z,9.50
2022-11-12T04:40:30.127Z,10.00
2022-11-12T04:41:33.941Z,9.25
2022-11-12T04:42:38.028Z,10.00
2022-11-12T04:43:41.932Z,9.25
2022-11-12T04:44:45.630Z,8.00
2022-11-12T04:45:49.424Z,10.00
2022-11-12T04:46:53.416Z,9.75
2022-11-12T04:47:57.317Z,8.00
2022-11-12T04:49:01.108Z,8.75
2022-11-12T04:50:04.811Z,9.00
2022-11-12T04:51:08.707Z,9.00
2022-11-12T04:52:12.602Z,9.75
2022-11-12T04:53:16.429Z,9.50
2022-11-12T04:54:20.297Z,9.25
2022-11-12T04:55:24.223Z,8.50
2022-11-12T04:56:27.901Z,8.00
2022-11-12T04:57:32.235Z,9.50
2022-11-12T04:59:55.976Z,11.00
2022-11-12T05:00:59.811Z,9.75
2022-11-12T05:02:03.667Z,9.25
2022-11-12T05:03:07.573Z,9.25
2022-11-12T05:04:11.356Z,9.00
2022-11-12T05:05:15.055Z,8.75
2022-11-12T05:06:19.062Z,9.50
2022-11-12T05:07:23.115Z,9.00
2022-11-12T05:08:27.143Z,9.00
2022-11-12T05:09:31.376Z,9.50
2022-11-12T05:10:35.039Z,10.50
2022-11-12T05:11:39.054Z,10.50
2022-11-12T05:12:42.764Z,9.50
2022-11-12T05:16:20.778Z,12.25
2022-11-12T05:18:41.672Z,9.50
2022-11-12T05:19:45.493Z,9.00
2022-11-12T05:20:49.170Z,10.00
2022-11-12T05:21:52.772Z,10.25
2022-11-12T05:23:08.718Z,9.00
2022-11-12T05:24:01.466Z,9.00
2022-11-12T05:25:05.169Z,9.25
2022-11-12T05:26:09.168Z,9.00
2022-11-12T05:27:12.979Z,10.00
2022-11-12T05:28:16.763Z,10.50
2022-11-12T05:29:20.467Z,10.75
2022-11-12T05:30:24.422Z,8.50
2022-11-12T05:31:28.145Z,8.00
2022-11-12T05:32:32.047Z,11.00
2022-11-12T05:33:36.171Z,10.50
2022-11-12T05:34:47.940Z,9.00
2022-11-12T05:35:52.573Z,7.25
2022-11-12T05:36:57.674Z,9.00
2022-11-12T05:38:03.137Z,13.00
2022-11-12T05:40:10.213Z,14.75
2022-11-12T05:41:18.766Z,14.50
2022-11-12T05:42:18.899Z,14.50
2022-11-12T05:43:22.710Z,12.00
2022-11-12T05:44:26.506Z,11.50
2022-11-12T05:45:30.510Z,15.00
2022-11-12T05:46:34.621Z,12.67
2022-11-12T05:47:38.651Z,11.00
2022-11-12T05:48:42.465Z,10.00
2022-11-12T05:49:46.426Z,10.00
2022-11-12T05:51:11.463Z,10.50
2022-11-12T05:51:55.140Z,10.25
2022-11-12T05:52:59.134Z,11.50
2022-11-12T05:54:04.692Z,15.00
2022-11-12T05:55:08.503Z,16.50
2022-11-12T05:56:12.352Z,17.50
2022-11-12T05:57:16.479Z,18.00
2022-11-12T05:58:20.265Z,15.25
2022-11-12T05:59:23.961Z,13.25
2022-11-12T06:00:27.754Z,13.50
2022-11-12T06:01:31.555Z,12.75
2022-11-12T06:02:35.481Z,12.50
2022-11-12T06:03:39.249Z,13.50
2022-11-12T06:04:42.938Z,13.50
2022-11-12T06:05:46.735Z,10.50
2022-11-12T06:06:50.461Z,10.75
2022-11-12T06:07:54.336Z,10.50
2022-11-12T06:08:58.113Z,10.00
2022-11-12T06:10:01.925Z,10.50
2022-11-12T06:11:05.825Z,9.75
2022-11-12T06:12:09.507Z,10.25
2022-11-12T06:13:13.227Z,10.50
2022-11-12T06:14:17.212Z,10.00
2022-11-12T06:15:21.216Z,11.25
2022-11-12T06:16:25.006Z,10.25
2022-11-12T06:17:28.797Z,11.50
2022-11-12T06:18:32.701Z,11.00
2022-11-12T06:19:37.797Z,11.00
2022-11-12T06:20:41.621Z,11.00
2022-11-12T06:21:45.732Z,10.50
2022-11-12T06:22:50.761Z,9.00
2022-11-12T06:23:54.853Z,9.00
2022-11-12T06:24:58.872Z,10.50
2022-11-12T06:26:02.761Z,10.50
2022-11-12T06:27:06.961Z,11.00
2022-11-12T06:28:10.792Z,10.25
2022-11-12T06:29:14.665Z,11.50
2022-11-12T06:30:24.429Z,10.00
2022-11-12T06:31:24.806Z,10.50
2022-11-12T06:32:28.787Z,10.00
2022-11-12T06:33:32.496Z,9.50
2022-11-12T06:34:36.085Z,11.00
2022-11-12T06:35:42.925Z,11.50
2022-11-12T06:36:44.773Z,11.50
2022-11-12T06:37:48.603Z,10.50
2022-11-12T06:38:52.405Z,11.75
2022-11-12T06:39:56.106Z,11.00
2022-11-12T06:40:59.899Z,11.00
2022-11-12T06:42:03.694Z,9.75
2022-11-12T06:43:07.595Z,10.50
2022-11-12T06:44:11.483Z,13.50
2022-11-12T06:45:15.492Z,11.50
2022-11-12T06:46:19.386Z,10.25
2022-11-12T06:47:23.452Z,12.00
2022-11-12T06:48:27.565Z,11.00
2022-11-12T06:49:31.890Z,11.25
2022-11-12T06:50:36.200Z,12.25
2022-11-12T06:51:40.192Z,10.50
2022-11-12T06:52:44.319Z,10.25
2022-11-12T06:53:48.429Z,10.25
2022-11-12T06:54:52.323Z,9.75
2022-11-12T06:55:56.329Z,9.75
2022-11-12T06:57:00.811Z,8.50
2022-11-12T06:58:05.124Z,10.50
2022-11-12T06:59:09.530Z,11.00
2022-11-12T07:00:13.636Z,9.00
2022-11-12T07:01:17.869Z,9.25
2022-11-12T07:02:22.048Z,10.00
2022-11-12T07:03:26.009Z,9.75
2022-11-12T07:04:29.975Z,10.50
2022-11-12T07:05:34.150Z,11.00
2022-11-12T07:06:38.096Z,11.75
2022-11-12T07:07:42.089Z,12.75
2022-11-12T07:08:46.255Z,12.50
2022-11-12T07:09:50.675Z,13.00
2022-11-12T07:10:54.686Z,13.50
2022-11-12T07:11:58.774Z,15.75
2022-11-12T07:13:02.981Z,15.25
2022-11-12T07:14:07.187Z,15.00
2022-11-12T07:15:11.386Z,14.00
2022-11-12T07:16:15.505Z,13.50
2022-11-12T07:17:19.594Z,13.00
2022-11-12T07:18:24.164Z,13.75
2022-11-12T07:19:28.423Z,13.00
2022-11-12T07:20:32.310Z,13.25
2022-11-12T07:21:36.422Z,12.50
2022-11-12T07:22:40.845Z,11.00
2022-11-12T07:23:46.488Z,14.00
2022-11-12T07:24:50.810Z,14.50
2022-11-12T07:25:55.103Z,13.75
2022-11-12T07:26:59.086Z,14.00
2022-11-12T07:28:03.405Z,13.00
2022-11-12T07:29:07.702Z,12.50
2022-11-12T07:30:11.805Z,12.50
2022-11-12T07:31:15.807Z,11.00
2022-11-12T07:32:19.927Z,11.75
2022-11-12T07:33:23.836Z,11.00
2022-11-12T07:34:27.910Z,11.00
2022-11-12T07:35:31.945Z,10.75
2022-11-12T07:36:35.882Z,11.00
2022-11-12T07:37:40.025Z,10.00
2022-11-12T07:38:44.226Z,11.00
2022-11-12T07:39:48.956Z,10.25
2022-11-12T07:40:53.057Z,10.25
2022-11-12T07:41:57.661Z,11.50
2022-11-12T07:43:01.946Z,10.00
2022-11-12T07:44:05.852Z,11.00
2022-11-12T07:45:10.081Z,11.50
2022-11-12T07:46:14.393Z,10.50
2022-11-12T07:47:18.293Z,12.75
2022-11-12T07:48:22.697Z,11.50
2022-11-12T07:49:26.930Z,12.00
2022-11-12T07:50:31.408Z,12.00
2022-11-12T07:51:35.538Z,12.00
2022-11-12T07:52:39.516Z,12.25
2022-11-12T07:53:43.727Z,12.50
2022-11-12T07:54:47.823Z,14.00
2022-11-12T07:55:52.033Z,18.25
2022-11-12T07:56:56.135Z,17.25
2022-11-12T07:58:00.276Z,13.25
2022-11-12T07:59:04.375Z,12.00
2022-11-12T08:00:08.549Z,12.50
2022-11-12T08:01:12.575Z,10.75
2022-11-12T08:02:16.873Z,10.50
2022-11-12T08:03:21.091Z,9.75
2022-11-12T08:04:25.071Z,12.00
2022-11-12T08:05:29.172Z,10.50
2022-11-12T08:06:33.574Z,10.00
2022-11-12T08:07:37.630Z,10.00
2022-11-12T08:08:41.546Z,10.50
2022-11-12T08:09:45.488Z,8.75
2022-11-12T08:10:49.480Z,8.00
2022-11-12T08:11:53.357Z,9.50
2022-11-12T08:12:57.376Z,10.50
2022-11-12T08:14:01.327Z,10.50
2022-11-12T08:15:05.491Z,11.50
2022-11-12T08:16:09.600Z,10.50
2022-11-12T08:17:13.506Z,9.50
2022-11-12T08:18:17.491Z,8.75
2022-11-12T08:19:21.688Z,10.25
2022-11-12T08:20:25.767Z,10.25
2022-11-12T08:21:29.794Z,9.75
2022-11-12T08:22:34.116Z,9.25
2022-11-12T08:23:38.208Z,9.25
2022-11-12T08:24:42.400Z,11.50
2022-11-12T08:25:46.510Z,11.50
2022-11-12T08:26:51.118Z,12.25
2022-11-12T08:27:55.443Z,13.25
2022-11-12T08:29:01.627Z,12.25
2022-11-12T08:30:04.424Z,8.75
2022-11-12T08:31:08.452Z,8.75
2022-11-12T08:32:12.471Z,9.50
2022-11-12T08:33:16.538Z,8.25
2022-11-12T08:34:22.791Z,8.00
2022-11-12T08:35:26.046Z,10.00
2022-11-12T08:36:30.110Z,9.25
2022-11-12T08:37:34.930Z,9.50
2022-11-12T08:38:39.045Z,8.50
2022-11-12T08:39:43.138Z,8.50
2022-11-12T08:40:47.215Z,8.50
2022-11-12T08:41:51.244Z,10.00
2022-11-12T08:42:55.272Z,10.50
2022-11-12T08:44:00.941Z,8.00
2022-11-12T08:45:04.435Z,10.25
2022-11-12T08:46:08.375Z,11.25
2022-11-12T08:47:12.273Z,12.00
2022-11-12T08:48:16.273Z,10.00
2022-11-12T08:49:20.274Z,8.00
2022-11-12T08:50:24.643Z,8.50
2022-11-12T08:51:28.408Z,9.75
2022-11-12T08:52:32.210Z,10.50
2022-11-12T08:53:35.896Z,12.50
2022-11-12T08:54:39.689Z,10.50
2022-11-12T08:55:43.391Z,8.00
2022-11-12T08:56:47.180Z,7.00
2022-11-12T08:57:50.840Z,6.50
2022-11-12T08:58:54.852Z,7.50
2022-11-12T08:59:58.953Z,6.00
2022-11-12T09:01:02.961Z,5.00
2022-11-12T09:02:06.808Z,6.50
2022-11-12T09:03:10.752Z,7.00
2022-11-12T09:04:14.868Z,6.50
2022-11-12T09:05:18.858Z,7.50
2022-11-12T09:06:23.065Z,10.75
2022-11-12T09:07:48.706Z,9.50
2022-11-12T09:08:32.600Z,7.25
2022-11-12T09:09:36.818Z,8.75
2022-11-12T09:10:40.923Z,9.00
2022-11-12T09:11:45.222Z,8.75
2022-11-12T09:12:49.412Z,11.25
2022-11-12T09:13:53.367Z,13.75
2022-11-12T09:15:09.702Z,12.00
2022-11-12T09:16:02.756Z,12.75
2022-11-12T09:17:07.077Z,13.50
2022-11-12T09:18:11.169Z,11.50
2022-11-12T09:19:15.277Z,10.25
2022-11-12T09:20:19.376Z,10.00
2022-11-12T09:21:23.377Z,11.25
2022-11-12T09:22:27.448Z,8.50
2022-11-12T09:23:31.586Z,7.50
2022-11-12T09:24:35.995Z,7.50
2022-11-12T09:25:40.200Z,7.75
2022-11-12T09:26:44.295Z,8.50
2022-11-12T09:27:48.687Z,7.50
2022-11-12T09:28:52.714Z,6.50
2022-11-12T09:29:56.718Z,8.50
2022-11-12T09:31:00.818Z,9.50
2022-11-12T09:32:04.822Z,7.00
2022-11-12T09:33:08.824Z,7.00
2022-11-12T09:34:12.923Z,8.00
2022-11-12T09:35:17.029Z,7.00
2022-11-12T09:36:21.030Z,7.25
2022-11-12T09:37:24.962Z,7.00
2022-11-12T09:38:29.063Z,7.00
2022-11-12T09:39:33.443Z,8.00
2022-11-12T09:40:37.546Z,9.00
2022-11-12T09:41:41.649Z,8.75
2022-11-12T09:42:45.753Z,7.00
2022-11-12T09:43:49.656Z,6.00
2022-11-12T09:44:53.662Z,5.00
2022-11-12T09:46:21.492Z,5.50
2022-11-12T09:47:03.093Z,6.00
2022-11-12T09:48:07.297Z,7.50
2022-11-12T09:49:11.808Z,8.00
2022-11-12T09:50:15.827Z,7.50
2022-11-12T09:51:19.672Z,8.50
2022-11-12T09:52:24.734Z,9.00
2022-11-12T09:53:29.146Z,7.50
2022-11-12T09:54:33.274Z,6.25
2022-11-12T09:55:37.357Z,6.50
2022-11-12T09:56:41.454Z,6.00
2022-11-12T09:57:45.462Z,7.50
2022-11-12T09:58:49.657Z,7.50
2022-11-12T09:59:54.228Z,7.00
2022-11-12T10:00:58.383Z,7.00
2022-11-12T10:02:02.435Z,7.00
2022-11-12T10:03:06.482Z,7.50
2022-11-12T10:04:10.605Z,6.50
2022-11-12T10:05:14.589Z,6.00
2022-11-12T10:06:19.407Z,7.25
2022-11-12T10:07:23.623Z,7.00
2022-11-12T10:08:28.153Z,6.00
2022-11-12T10:09:32.855Z,5.50
2022-11-12T10:10:37.051Z,6.75
2022-11-12T10:11:41.326Z,7.00
2022-11-12T10:12:45.594Z,6.50
2022-11-12T10:13:49.670Z,8.00
2022-11-12T10:14:53.775Z,8.00
2022-11-12T10:15:57.872Z,7.00
2022-11-12T10:17:02.186Z,7.00
2022-11-12T10:18:06.388Z,6.50
2022-11-12T10:19:10.390Z,8.00
2022-11-12T10:20:14.607Z,8.00
2022-11-12T10:21:18.833Z,8.00
2022-11-12T10:22:22.908Z,10.50
2022-11-12T10:23:27.372Z,7.00
2022-11-12T10:24:31.625Z,7.00
2022-11-12T10:25:36.032Z,8.25
2022-11-12T10:26:40.346Z,8.50
2022-11-12T10:27:44.551Z,8.00
2022-11-12T10:28:48.665Z,8.00
2022-11-12T10:29:52.774Z,9.00
2022-11-12T10:30:57.280Z,7.00
2022-11-12T10:32:01.266Z,7.25
2022-11-12T10:33:05.273Z,8.00
2022-11-12T10:34:09.688Z,9.00
2022-11-12T10:35:13.989Z,8.00
2022-11-12T10:36:18.414Z,8.00
2022-11-12T10:37:22.375Z,8.50
2022-11-12T10:38:26.898Z,8.25
2022-11-12T10:39:31.233Z,7.75
2022-11-12T10:40:35.634Z,8.75
2022-11-12T10:41:39.739Z,10.00
2022-11-12T10:42:43.943Z,9.00
2022-11-12T10:43:48.043Z,9.00
2022-11-12T10:44:52.044Z,9.75
2022-11-12T10:45:56.873Z,7.50
2022-11-12T10:47:01.586Z,7.00
2022-11-12T10:48:05.891Z,7.00
2022-11-12T10:49:09.995Z,7.00
2022-11-12T10:50:14.124Z,7.25
2022-11-12T10:51:18.512Z,10.25
2022-11-12T10:52:22.623Z,7.75
2022-11-12T10:53:26.827Z,8.50
2022-11-12T10:54:30.854Z,7.50
2022-11-12T10:55:36.155Z,7.75
2022-11-12T10:56:40.685Z,9.25
2022-11-12T10:57:44.866Z,10.50
2022-11-12T10:58:49.182Z,9.50
2022-11-12T10:59:53.390Z,10.25
2022-11-12T11:00:57.824Z,10.00
2022-11-12T11:02:02.262Z,7.75
2022-11-12T11:03:06.513Z,8.00
2022-11-12T11:04:11.064Z,8.75
2022-11-12T11:05:15.443Z,8.50
2022-11-12T11:06:19.749Z,8.00
2022-11-12T11:07:23.848Z,7.50
2022-11-12T11:08:34.542Z,8.50
2022-11-12T11:09:33.895Z,9.00
2022-11-12T11:10:38.220Z,8.00
2022-11-12T11:11:42.516Z,7.00
2022-11-12T11:12:47.234Z,7.00
2022-11-12T11:13:55.414Z,7.50
2022-11-12T11:14:56.979Z,6.50
2022-11-12T11:16:01.306Z,8.50
2022-11-12T11:17:05.617Z,8.75
2022-11-12T11:18:09.891Z,8.50
2022-11-12T11:19:13.905Z,9.00
2022-11-12T11:20:18.008Z,9.25
2022-11-12T11:21:22.109Z,9.00
2022-11-12T11:22:26.419Z,8.75
2022-11-12T11:23:31.033Z,9.25
2022-11-12T11:24:35.549Z,9.00
2022-11-12T11:25:40.065Z,8.50
2022-11-12T11:26:43.946Z,8.75
2022-11-12T11:27:47.762Z,10.50
2022-11-12T11:28:52.272Z,9.75
2022-11-12T11:29:56.371Z,7.75
2022-11-12T11:31:00.585Z,7.75
2022-11-12T11:32:04.683Z,9.00
2022-11-12T11:33:08.787Z,10.00
2022-11-12T11:34:12.891Z,9.50
2022-11-12T11:35:16.889Z,10.50
2022-11-12T11:36:21.012Z,11.50
2022-11-12T11:37:24.992Z,12.00
2022-11-12T11:38:29.940Z,10.00
2022-11-12T11:39:34.020Z,11.00
2022-11-12T11:40:38.047Z,11.00
2022-11-12T11:41:42.123Z,11.25
2022-11-12T11:42:46.111Z,11.50
2022-11-12T11:43:50.196Z,10.75
2022-11-12T11:44:54.388Z,11.50
2022-11-12T11:45:58.341Z,11.00
2022-11-12T11:47:02.283Z,9.50
2022-11-12T11:48:06.342Z,11.75
2022-11-12T11:49:10.446Z,10.50
2022-11-12T11:50:14.756Z,11.50
2022-11-12T11:51:23.423Z,13.50
2022-11-12T11:52:24.360Z,12.75
2022-11-12T11:53:28.387Z,12.50
2022-11-12T11:54:32.594Z,11.75
2022-11-12T11:55:36.595Z,12.00
2022-11-12T11:56:40.704Z,11.50
2022-11-12T11:57:44.804Z,11.75
2022-11-12T11:58:48.900Z,11.00
2022-11-12T11:59:53.113Z,10.00
2022-11-12T12:00:58.535Z,11.00
2022-11-12T12:02:02.659Z,12.50
2022-11-12T12:03:07.087Z,11.50
2022-11-12T12:04:11.397Z,10.50
2022-11-12T12:05:15.585Z,11.50
2022-11-12T12:06:19.558Z,12.00
2022-11-12T12:07:23.578Z,11.50
2022-11-12T12:08:28.239Z,11.00
2022-11-12T12:09:32.908Z,11.00
2022-11-12T12:10:53.764Z,11.75
2022-11-12T12:11:42.393Z,11.25
2022-11-12T12:12:46.344Z,11.50
2022-11-12T12:13:50.662Z,11.00
2022-11-12T12:14:54.961Z,12.50
2022-11-12T12:15:59.582Z,12.75
2022-11-12T12:17:03.682Z,11.00
2022-11-12T12:18:07.696Z,11.50
2022-11-12T12:19:12.103Z,14.00
2022-11-12T12:20:15.995Z,14.25
2022-11-12T12:21:19.991Z,12.00
2022-11-12T12:22:24.101Z,11.00
2022-11-12T12:23:28.207Z,9.50
2022-11-12T12:24:32.520Z,9.50
2022-11-12T12:25:36.611Z,10.25
2022-11-12T12:26:40.918Z,11.00
2022-11-12T12:27:45.223Z,11.50
2022-11-12T12:28:49.540Z,14.00
2022-11-12T12:29:53.950Z,13.00
2022-11-12T12:30:57.951Z,12.50
2022-11-12T12:32:02.062Z,13.00
2022-11-12T12:33:09.012Z,11.25
2022-11-12T12:34:14.459Z,11.25
2022-11-12T12:35:18.463Z,12.00
2022-11-12T12:36:22.563Z,11.25
2022-11-12T12:37:26.871Z,11.50
2022-11-12T12:38:31.285Z,10.50
2022-11-12T12:39:35.493Z,9.50
2022-11-12T12:40:39.998Z,11.25
2022-11-12T12:41:44.203Z,12.25
2022-11-12T12:42:48.514Z,12.00
2022-11-12T12:43:52.734Z,12.25
2022-11-12T12:44:56.789Z,13.50
2022-11-12T12:46:01.128Z,14.75
2022-11-12T12:47:05.651Z,15.25
2022-11-12T12:48:09.807Z,15.25
2022-11-12T12:49:13.951Z,15.00
2022-11-12T12:50:18.071Z,14.00
2022-11-12T12:51:22.670Z,13.00
2022-11-12T12:52:26.570Z,14.75
2022-11-12T12:53:30.887Z,14.75
2022-11-12T12:54:34.779Z,13.50
2022-11-12T12:55:38.676Z,12.75
2022-11-12T12:56:43.509Z,12.25
2022-11-12T12:57:48.177Z,13.00
2022-11-12T12:58:52.440Z,13.00
2022-11-12T12:59:56.828Z,13.25
2022-11-12T13:01:00.994Z,14.75
2022-11-12T13:02:05.006Z,14.00
2022-11-12T13:03:09.082Z,13.00
2022-11-12T13:04:12.889Z,13.75
2022-11-12T13:05:16.754Z,14.50
2022-11-12T13:06:20.738Z,12.25
2022-11-12T13:07:24.648Z,12.75
2022-11-12T13:08:28.971Z,12.00
2022-11-12T13:09:33.567Z,13.00
2022-11-12T13:10:37.863Z,14.00
2022-11-12T13:11:41.970Z,14.50
2022-11-12T13:12:46.070Z,13.00
2022-11-12T13:13:50.394Z,12.00
2022-11-12T13:14:54.586Z,13.00
2022-11-12T13:15:58.893Z,13.00
2022-11-12T13:17:02.998Z,13.00
2022-11-12T13:18:08.747Z,13.00
2022-11-12T13:19:12.590Z,12.50
2022-11-12T13:20:16.643Z,13.50
2022-11-12T13:21:20.718Z,13.00
2022-11-12T13:22:24.745Z,13.50
2022-11-12T13:23:31.713Z,14.50
2022-11-12T13:24:33.970Z,14.75
2022-11-12T13:25:37.976Z,15.50
2022-11-12T13:26:42.282Z,16.25
2022-11-12T13:27:46.281Z,18.25
2022-11-12T13:28:50.291Z,16.00
2022-11-12T13:29:54.328Z,16.75
2022-11-12T13:30:58.290Z,16.75
2022-11-12T13:32:02.391Z,17.00
2022-11-12T13:33:11.452Z,15.50
2022-11-12T13:34:11.730Z,14.50
2022-11-12T13:35:15.742Z,16.50
2022-11-12T13:36:19.626Z,14.00
2022-11-12T13:37:23.831Z,15.50
2022-11-12T13:38:28.287Z,17.25
2022-11-12T13:39:32.450Z,15.25
2022-11-12T13:40:36.454Z,15.00
2022-11-12T13:41:40.461Z,15.00
2022-11-12T13:42:44.448Z,14.25
2022-11-12T13:43:48.428Z,15.00
2022-11-12T13:44:55.993Z,15.50
2022-11-12T13:45:57.583Z,16.50
2022-11-12T13:47:01.785Z,15.50
2022-11-12T13:48:05.890Z,16.25
2022-11-12T13:49:09.990Z,14.25
2022-11-12T13:50:14.092Z,15.00
2022-11-12T13:51:17.997Z,15.00
2022-11-12T13:52:22.405Z,14.50
2022-11-12T13:53:26.403Z,13.50
2022-11-12T13:54:30.413Z,13.50
2022-11-12T13:55:34.372Z,13.00
2022-11-12T13:56:38.510Z,15.00
2022-11-12T13:57:42.514Z,15.25
2022-11-12T13:58:46.745Z,16.50
2022-11-12T13:59:50.723Z,16.50
2022-11-12T14:00:54.768Z,14.50
2022-11-12T14:01:58.822Z,15.50
2022-11-12T14:03:03.033Z,15.50
2022-11-12T14:04:07.134Z,14.50
2022-11-12T14:05:11.131Z,13.50
2022-11-12T14:06:15.147Z,15.00
2022-11-12T14:07:19.236Z,15.00